createdAt,value
2023-02-21T00:01:46.617Z,77.33
2023-02-21T00:04:31.917Z,76.73
2023-02-21T00:07:17.211Z,72.97
2023-02-21T00:10:02.112Z,76.83
2023-02-21T00:12:47.451Z,55.23
2023-02-21T00:15:34.038Z,61.47
2023-02-21T00:18:19.245Z,56.07
2023-02-21T00:21:04.689Z,57.73
2023-02-21T00:23:51.944Z,54.03
2023-02-21T00:26:37.690Z,50.17
2023-02-21T00:29:22.769Z,48.70
2023-02-21T00:32:09.253Z,47.03
2023-02-21T00:34:54.547Z,47.97
2023-02-21T00:37:39.820Z,44.33
2023-02-21T00:40:25.885Z,46.47
2023-02-21T00:43:11.209Z,42.43
2023-02-21T00:45:56.530Z,42.63
2023-02-21T00:48:43.501Z,40.87
2023-02-21T00:51:28.672Z,40.20
2023-02-21T00:54:13.713Z,42.13
2023-02-21T00:56:58.986Z,44.60
2023-02-21T00:59:44.151Z,43.50
2023-02-21T01:02:29.471Z,44.50
2023-02-21T01:05:16.128Z,47.37
2023-02-21T01:08:01.805Z,51.37
2023-02-21T01:10:46.914Z,52.43
2023-02-21T01:13:32.236Z,57.73
2023-02-21T01:16:17.532Z,60.33
2023-02-21T01:19:02.494Z,63.20
2023-02-21T01:21:49.253Z,64.03
2023-02-21T01:24:34.557Z,65.03
2023-02-21T01:27:19.866Z,67.57
2023-02-21T01:30:06.425Z,71.63
2023-02-21T01:32:52.141Z,73.53
2023-02-21T01:35:37.408Z,77.23
2023-02-21T01:38:24.192Z,78.70
2023-02-21T01:41:09.357Z,76.60
2023-02-21T01:43:54.783Z,76.67
2023-02-21T01:46:39.930Z,80.33
2023-02-21T01:49:28.324Z,84.60
2023-02-21T01:52:13.741Z,83.73
2023-02-21T01:55:06.526Z,84.67
2023-02-21T01:57:53.240Z,89.37
2023-02-21T02:00:38.730Z,91.77
2023-02-21T02:03:25.744Z,88.80
2023-02-21T02:06:14.504Z,97.07
2023-02-21T02:08:59.486Z,94.10
2023-02-21T02:12:03.449Z,101.00
2023-02-21T02:14:52.641Z,97.77
2023-02-21T02:17:34.951Z,103.63
2023-02-21T02:20:22.930Z,101.17
2023-02-21T02:23:15.683Z,104.00
2023-02-21T02:26:06.924Z,99.70
2023-02-21T02:28:52.674Z,98.53
2023-02-21T02:31:39.433Z,95.77
2023-02-21T02:34:54.626Z,89.77
2023-02-21T02:37:29.035Z,80.67
2023-02-21T02:40:04.087Z,74.20
2023-02-21T02:42:43.459Z,67.37
2023-02-21T02:45:20.876Z,69.30
2023-02-21T02:47:55.256Z,68.00
2023-02-21T02:50:25.777Z,64.73
2023-02-21T02:52:55.026Z,64.17
2023-02-21T02:55:32.968Z,61.30
2023-02-21T02:58:01.611Z,62.70
2023-02-21T03:00:30.272Z,63.63
2023-02-21T03:03:14.044Z,64.27
2023-02-21T03:05:58.831Z,65.97
2023-02-21T03:08:34.278Z,64.80
2023-02-21T03:11:10.878Z,64.67
2023-02-21T03:13:44.460Z,63.93
2023-02-21T03:16:20.906Z,66.30
2023-02-21T03:18:51.918Z,65.17
2023-02-21T03:21:22.673Z,66.93
2023-02-21T03:23:54.305Z,65.13
2023-02-21T03:26:22.030Z,64.40
2023-02-21T03:28:51.590Z,62.70
2023-02-21T03:31:25.642Z,63.13
2023-02-21T03:33:53.277Z,59.50
2023-02-21T03:36:22.496Z,61.00
2023-02-21T03:38:50.226Z,57.13
2023-02-21T03:41:17.928Z,58.63
2023-02-21T03:43:45.550Z,55.43
2023-02-21T03:46:13.201Z,56.40
2023-02-21T03:48:40.941Z,55.27
2023-02-21T03:51:08.545Z,59.17
2023-02-21T03:53:37.905Z,54.60
2023-02-21T03:56:06.173Z,54.77
2023-02-21T03:58:33.809Z,55.90
2023-02-21T04:01:01.495Z,55.93
2023-02-21T04:03:29.138Z,53.83
2023-02-21T04:05:56.757Z,57.10
2023-02-21T04:08:24.766Z,54.90
2023-02-21T04:10:53.751Z,56.67
2023-02-21T04:13:23.670Z,56.40
2023-02-21T04:15:51.440Z,57.33
2023-02-21T04:18:19.066Z,53.07
2023-02-21T04:20:47.522Z,54.37
2023-02-21T04:23:18.483Z,50.97
2023-02-21T04:25:46.579Z,53.43
2023-02-21T04:28:15.669Z,55.70
2023-02-21T04:30:43.341Z,55.37
2023-02-21T04:33:10.973Z,57.13
2023-02-21T04:35:38.573Z,54.67
2023-02-21T04:38:06.205Z,57.23
2023-02-21T04:40:34.268Z,56.50
2023-02-21T04:43:01.876Z,54.80
2023-02-21T04:45:30.879Z,57.43
2023-02-21T04:47:58.455Z,54.80
2023-02-21T04:50:26.061Z,55.00
2023-02-21T04:52:53.637Z,55.50
2023-02-21T04:55:21.277Z,56.03
2023-02-21T04:57:48.856Z,56.53
2023-02-21T05:00:17.177Z,55.90
2023-02-21T05:02:46.860Z,61.10
2023-02-21T05:05:15.097Z,57.97
2023-02-21T05:07:43.515Z,56.50
2023-02-21T05:10:11.998Z,55.97
2023-02-21T05:12:40.375Z,54.27
2023-02-21T05:15:09.622Z,55.27
2023-02-21T05:17:37.217Z,56.63
2023-02-21T05:20:11.833Z,57.23
2023-02-21T05:22:40.221Z,58.50
2023-02-21T05:25:08.971Z,58.80
2023-02-21T05:27:36.552Z,61.60
2023-02-21T05:30:04.367Z,61.20
2023-02-21T05:32:32.066Z,64.40
2023-02-21T05:34:59.817Z,65.97
2023-02-21T05:37:31.049Z,64.80
2023-02-21T05:39:59.075Z,66.90
2023-02-21T05:42:26.935Z,65.07
2023-02-21T05:44:54.620Z,64.23
2023-02-21T05:47:22.189Z,66.57
2023-02-21T05:49:49.774Z,69.10
2023-02-21T05:52:18.971Z,66.63
2023-02-21T05:54:47.979Z,72.20
2023-02-21T05:57:15.592Z,66.13
2023-02-21T05:59:43.588Z,65.17
2023-02-21T06:02:11.248Z,66.73
2023-02-21T06:04:38.867Z,66.27
2023-02-21T06:07:06.587Z,67.53
2023-02-21T06:09:34.263Z,70.30
2023-02-21T06:12:03.251Z,68.07
2023-02-21T06:14:30.988Z,67.63
2023-02-21T06:16:58.589Z,67.10
2023-02-21T06:19:26.171Z,67.73
2023-02-21T06:21:53.757Z,63.87
2023-02-21T06:24:21.386Z,62.90
2023-02-21T06:26:49.050Z,58.93
2023-02-21T06:29:18.107Z,65.30
2023-02-21T06:31:45.728Z,60.10
2023-02-21T06:34:13.801Z,60.67
2023-02-21T06:36:41.469Z,60.80
2023-02-21T06:39:09.190Z,62.00
2023-02-21T06:41:36.797Z,59.10
2023-02-21T06:44:04.531Z,60.67
2023-02-21T06:46:36.247Z,56.77
2023-02-21T06:49:04.507Z,58.60
2023-02-21T06:51:35.494Z,53.03
2023-02-21T06:54:03.161Z,50.63
2023-02-21T06:56:31.128Z,53.47
2023-02-21T06:58:59.183Z,54.73
2023-02-21T07:01:27.968Z,54.63
2023-02-21T07:03:57.280Z,60.20
2023-02-21T07:06:27.865Z,53.50
2023-02-21T07:08:56.868Z,51.43
2023-02-21T07:11:24.488Z,52.43
2023-02-21T07:13:52.607Z,50.60
2023-02-21T07:16:22.303Z,52.80
2023-02-21T07:18:49.883Z,52.27
2023-02-21T07:21:20.868Z,53.10
2023-02-21T07:23:49.070Z,53.03
2023-02-21T07:26:17.044Z,49.73
2023-02-21T07:28:45.962Z,46.90
2023-02-21T07:31:14.205Z,49.03
2023-02-21T07:33:42.409Z,49.00
2023-02-21T07:36:10.335Z,55.03
2023-02-21T07:38:39.261Z,50.37
2023-02-21T07:41:07.261Z,47.90
2023-02-21T07:43:34.852Z,50.70
2023-02-21T07:46:02.600Z,47.43
2023-02-21T07:48:30.243Z,50.77
2023-02-21T07:50:57.797Z,48.30
2023-02-21T07:53:25.403Z,46.80
2023-02-21T07:55:54.448Z,49.07
2023-02-21T07:58:22.301Z,47.77
2023-02-21T08:00:50.128Z,48.30
2023-02-21T08:03:17.734Z,47.70
2023-02-21T08:05:45.945Z,50.03
2023-02-21T08:08:13.548Z,49.80
2023-02-21T08:10:41.099Z,55.97
2023-02-21T08:13:10.145Z,50.70
2023-02-21T08:15:37.866Z,46.40
2023-02-21T08:18:05.524Z,48.03
2023-02-21T08:20:33.449Z,45.47
2023-02-21T08:23:01.115Z,44.10
2023-02-21T08:25:28.705Z,47.83
2023-02-21T08:27:56.282Z,44.70
2023-02-21T08:30:25.412Z,45.97
2023-02-21T08:32:53.127Z,47.57
2023-02-21T08:35:21.879Z,44.87
2023-02-21T08:37:50.930Z,50.03
2023-02-21T08:40:21.197Z,46.27
2023-02-21T08:42:50.733Z,47.60
2023-02-21T08:45:20.028Z,48.87
2023-02-21T08:47:49.380Z,46.20
2023-02-21T08:50:17.077Z,48.47
2023-02-21T08:52:46.836Z,48.23
2023-02-21T08:55:14.686Z,46.33
2023-02-21T08:57:42.287Z,46.87
2023-02-21T09:00:12.252Z,47.27
2023-02-21T09:02:40.846Z,46.57
2023-02-21T09:05:10.927Z,44.97
2023-02-21T09:07:38.601Z,45.37
2023-02-21T09:10:09.812Z,45.53
2023-02-21T09:12:37.658Z,45.10
2023-02-21T09:15:06.390Z,45.37
2023-02-21T09:17:34.768Z,44.23
2023-02-21T09:20:06.453Z,45.30
2023-02-21T09:22:35.811Z,48.37
2023-02-21T09:25:04.695Z,45.43
2023-02-21T09:27:38.133Z,45.73
2023-02-21T09:30:08.425Z,45.67
2023-02-21T09:32:36.638Z,52.40
2023-02-21T09:35:05.269Z,45.40
2023-02-21T09:37:33.437Z,44.10
2023-02-21T09:40:02.448Z,45.63
2023-02-21T09:42:32.222Z,47.47
2023-02-21T09:45:00.415Z,45.50
2023-02-21T09:47:31.775Z,46.17
2023-02-21T09:50:02.765Z,43.33
2023-02-21T09:52:34.182Z,44.57
2023-02-21T09:55:09.491Z,45.83
2023-02-21T09:57:37.877Z,46.23
2023-02-21T10:00:18.453Z,42.20
2023-02-21T10:02:57.840Z,43.40
2023-02-21T10:05:38.868Z,40.67
2023-02-21T10:08:15.380Z,42.50
2023-02-21T10:10:47.725Z,43.20
2023-02-21T10:13:29.493Z,44.17
2023-02-21T10:16:03.129Z,42.07
2023-02-21T10:18:39.580Z,43.53
2023-02-21T10:21:15.838Z,39.77
2023-02-21T10:23:47.672Z,41.47
2023-02-21T10:26:24.217Z,41.50
2023-02-21T10:28:55.623Z,41.97
2023-02-21T10:31:32.601Z,40.10
2023-02-21T10:34:00.349Z,55.10
2023-02-21T10:36:28.808Z,42.67
2023-02-21T10:38:59.491Z,40.43
2023-02-21T10:41:31.069Z,40.47
2023-02-21T10:44:02.836Z,40.00
2023-02-21T10:46:35.234Z,40.00
2023-02-21T10:49:21.390Z,39.50
2023-02-21T10:51:49.038Z,38.90
2023-02-21T10:54:21.976Z,39.70
2023-02-21T10:56:52.707Z,38.80
2023-02-21T10:59:24.118Z,42.50
2023-02-21T11:01:53.410Z,40.13
2023-02-21T11:04:28.181Z,40.83
2023-02-21T11:06:58.717Z,40.30
2023-02-21T11:09:41.962Z,38.53
2023-02-21T11:12:25.404Z,39.17
2023-02-21T11:15:17.017Z,40.67
2023-02-21T11:17:46.970Z,38.63
2023-02-21T11:20:20.475Z,40.30
2023-02-21T11:22:49.827Z,38.57
2023-02-21T11:25:23.242Z,37.67
2023-02-21T11:28:07.973Z,36.83
2023-02-21T11:30:38.265Z,35.40
2023-02-21T11:33:08.761Z,34.60
2023-02-21T11:35:39.836Z,37.20
2023-02-21T11:38:09.941Z,37.00
2023-02-21T11:40:45.423Z,39.90
2023-02-21T11:43:24.982Z,35.27
2023-02-21T11:46:09.457Z,43.57
2023-02-21T11:48:41.987Z,37.13
2023-02-21T11:51:25.295Z,35.07
2023-02-21T11:53:53.484Z,34.80
2023-02-21T11:56:31.056Z,44.10
2023-02-21T11:59:11.189Z,33.30
2023-02-21T12:01:46.869Z,33.83
2023-02-21T12:04:39.412Z,34.40
2023-02-21T12:07:17.564Z,37.23
2023-02-21T12:09:53.963Z,36.33
2023-02-21T12:12:36.375Z,34.70
2023-02-21T12:15:20.217Z,32.90
2023-02-21T12:18:06.755Z,38.40
2023-02-21T12:20:49.524Z,33.27
2023-02-21T12:23:24.072Z,34.77
2023-02-21T12:26:19.071Z,31.87
2023-02-21T12:29:00.504Z,31.70
2023-02-21T12:31:48.761Z,31.83
2023-02-21T12:34:28.578Z,32.10
2023-02-21T12:37:06.871Z,32.00
2023-02-21T12:39:50.879Z,32.23
2023-02-21T12:42:28.372Z,31.60
2023-02-21T12:45:04.475Z,30.00
2023-02-21T12:47:39.704Z,37.07
2023-02-21T12:50:18.037Z,29.73
2023-02-21T12:52:58.186Z,29.70
2023-02-21T12:55:29.377Z,32.90
2023-02-21T12:58:01.456Z,31.93
2023-02-21T13:00:35.933Z,29.90
2023-02-21T13:03:17.662Z,29.90
2023-02-21T13:05:47.712Z,29.50
2023-02-21T13:08:21.174Z,29.27
2023-02-21T13:10:54.683Z,30.57
2023-02-21T13:13:26.703Z,28.23
2023-02-21T13:15:57.569Z,27.83
2023-02-21T13:18:29.768Z,28.20
2023-02-21T13:21:01.149Z,27.40
2023-02-21T13:23:51.039Z,28.87
2023-02-21T13:26:45.621Z,31.93
2023-02-21T13:29:19.602Z,27.70
2023-02-21T13:31:48.790Z,29.63
2023-02-21T13:34:24.275Z,27.40
2023-02-21T13:36:52.071Z,27.40
2023-02-21T13:39:22.042Z,26.37
2023-02-21T13:41:55.750Z,38.47
2023-02-21T13:44:27.047Z,24.10
2023-02-21T13:47:10.441Z,24.57
2023-02-21T13:49:58.036Z,24.73
2023-02-21T13:52:36.991Z,25.20
2023-02-21T13:55:36.213Z,27.10
2023-02-21T13:58:33.635Z,25.17
2023-02-21T14:01:49.908Z,32.37
2023-02-21T14:04:59.824Z,25.87
2023-02-21T14:07:57.743Z,28.47
2023-02-21T14:10:35.216Z,24.53
2023-02-21T14:13:06.453Z,23.83
2023-02-21T14:15:39.815Z,24.63
2023-02-21T14:18:15.080Z,23.47
2023-02-21T14:20:43.264Z,26.70
2023-02-21T14:23:18.371Z,23.60
2023-02-21T14:25:59.683Z,25.90
2023-02-21T14:29:01.769Z,25.47
2023-02-21T14:31:53.911Z,25.67
2023-02-21T14:34:26.218Z,30.90
2023-02-21T14:36:55.665Z,22.97
2023-02-21T14:39:31.661Z,27.00
2023-02-21T14:42:15.387Z,28.33
2023-02-21T14:44:59.305Z,23.80
2023-02-21T14:47:47.724Z,24.40
2023-02-21T14:50:31.569Z,29.33
2023-02-21T14:53:26.449Z,24.27
2023-02-21T14:56:27.950Z,23.67
2023-02-21T14:59:27.369Z,22.73
2023-02-21T15:02:05.973Z,28.30
2023-02-21T15:04:40.726Z,24.90
2023-02-21T15:07:18.650Z,22.63
2023-02-21T15:09:46.999Z,23.37
2023-02-21T15:12:18.708Z,26.50
2023-02-21T15:14:51.883Z,30.57
2023-02-21T15:17:23.001Z,23.07
2023-02-21T15:20:05.670Z,23.27
2023-02-21T15:22:33.610Z,25.90
2023-02-21T15:25:14.456Z,24.43
2023-02-21T15:27:58.971Z,23.80
2023-02-21T15:30:29.217Z,23.07
2023-02-21T15:33:00.700Z,27.93
2023-02-21T15:35:33.560Z,22.07
2023-02-21T15:38:04.971Z,28.07
2023-02-21T15:40:32.786Z,21.90
2023-02-21T15:43:04.186Z,23.50
2023-02-21T15:45:37.688Z,25.53
2023-02-21T15:48:06.024Z,30.50
2023-02-21T15:50:36.972Z,23.27
2023-02-21T15:53:16.879Z,25.40
2023-02-21T15:55:45.705Z,24.23
2023-02-21T15:58:18.941Z,27.87
2023-02-21T16:00:48.321Z,25.53
2023-02-21T16:03:34.416Z,21.90
2023-02-21T16:06:25.087Z,25.27
2023-02-21T16:09:02.214Z,24.90
2023-02-21T16:11:41.577Z,26.33
2023-02-21T16:14:19.611Z,23.03
2023-02-21T16:16:53.675Z,25.23
2023-02-21T16:19:23.692Z,31.43
2023-02-21T16:21:51.532Z,24.63
2023-02-21T16:24:30.816Z,25.27
2023-02-21T16:27:07.198Z,30.93
2023-02-21T16:29:36.245Z,30.87
2023-02-21T16:32:04.506Z,23.47
2023-02-21T16:34:34.325Z,29.93
2023-02-21T16:37:04.053Z,26.57
2023-02-21T16:39:32.222Z,23.27
2023-02-21T16:41:59.891Z,29.53
2023-02-21T16:44:27.622Z,23.97
2023-02-21T16:46:56.878Z,28.20
2023-02-21T16:49:24.499Z,23.27
2023-02-21T16:51:52.436Z,24.73
2023-02-21T16:54:20.115Z,25.40
2023-02-21T16:56:51.413Z,29.17
2023-02-21T16:59:21.177Z,38.60
2023-02-21T17:01:48.842Z,30.93
2023-02-21T17:04:20.027Z,23.90
2023-02-21T17:06:48.962Z,25.20
2023-02-21T17:09:22.161Z,22.93
2023-02-21T17:11:49.927Z,23.30
2023-02-21T17:14:18.006Z,23.60
2023-02-21T17:16:45.872Z,23.07
2023-02-21T17:19:15.270Z,24.60
2023-02-21T17:21:44.976Z,28.23
2023-02-21T17:24:15.400Z,23.67
2023-02-21T17:26:43.024Z,22.27
2023-02-21T17:29:11.721Z,24.43
2023-02-21T17:31:39.441Z,24.13
2023-02-21T17:34:07.098Z,29.93
2023-02-21T17:36:34.995Z,23.50
2023-02-21T17:39:04.307Z,23.23
2023-02-21T17:41:31.945Z,26.03
2023-02-21T17:43:59.564Z,23.77
2023-02-21T17:46:27.227Z,23.83
2023-02-21T17:48:54.858Z,25.60
2023-02-21T17:51:24.689Z,23.90
2023-02-21T17:53:52.901Z,25.50
2023-02-21T17:56:24.313Z,35.50
2023-02-21T17:58:52.056Z,26.20
2023-02-21T18:01:20.721Z,27.13
2023-02-21T18:03:48.952Z,27.40
2023-02-21T18:06:17.318Z,29.73
2023-02-21T18:08:46.987Z,26.20
2023-02-21T18:11:16.859Z,26.87
2023-02-21T18:13:46.041Z,27.83
2023-02-21T18:16:14.455Z,27.33
2023-02-21T18:18:42.194Z,25.63
2023-02-21T18:21:10.181Z,28.03
2023-02-21T18:23:38.283Z,28.27
2023-02-21T18:26:06.395Z,28.57
2023-02-21T18:28:34.144Z,28.77
2023-02-21T18:31:03.222Z,29.33
2023-02-21T18:33:32.067Z,30.10
2023-02-21T18:36:00.359Z,28.93
2023-02-21T18:38:28.809Z,28.53
2023-02-21T18:41:01.580Z,29.27
2023-02-21T18:43:31.288Z,28.67
2023-02-21T18:45:59.686Z,28.27
2023-02-21T18:48:28.792Z,29.73
2023-02-21T18:50:56.476Z,29.17
2023-02-21T18:53:24.069Z,27.87
2023-02-21T18:55:51.776Z,30.97
2023-02-21T18:58:19.487Z,31.57
2023-02-21T19:00:49.500Z,32.60
2023-02-21T19:03:17.314Z,36.20
2023-02-21T19:05:46.280Z,39.27
2023-02-21T19:08:14.042Z,49.47
2023-02-21T19:10:41.686Z,47.60
2023-02-21T19:13:09.258Z,40.07
2023-02-21T19:15:36.831Z,43.10
2023-02-21T19:18:04.731Z,35.80
2023-02-21T19:20:32.335Z,33.63
2023-02-21T19:23:01.392Z,35.73
2023-02-21T19:25:29.560Z,31.83
2023-02-21T19:28:00.446Z,34.43
2023-02-21T19:30:29.836Z,30.50
2023-02-21T19:32:58.859Z,30.13
2023-02-21T19:35:28.424Z,32.03
2023-02-21T19:37:56.411Z,32.47
2023-02-21T19:40:26.742Z,32.70
2023-02-21T19:42:54.742Z,33.43
2023-02-21T19:45:22.436Z,34.30
2023-02-21T19:47:50.076Z,35.00
2023-02-21T19:50:17.792Z,33.57
2023-02-21T19:52:47.433Z,33.93
2023-02-21T19:55:15.744Z,34.60
2023-02-21T19:57:44.773Z,36.87
2023-02-21T20:00:13.452Z,33.83
2023-02-21T20:02:41.273Z,37.03
2023-02-21T20:05:10.324Z,36.03
2023-02-21T20:07:38.226Z,34.53
2023-02-21T20:10:06.864Z,33.77
2023-02-21T20:12:34.540Z,33.00
2023-02-21T20:15:04.058Z,37.80
2023-02-21T20:17:32.809Z,34.47
2023-02-21T20:20:00.424Z,34.37
2023-02-21T20:22:33.744Z,35.00
2023-02-21T20:25:02.005Z,38.87
2023-02-21T20:27:29.714Z,44.53
2023-02-21T20:29:57.956Z,42.97
2023-02-21T20:32:28.274Z,55.30
2023-02-21T20:34:56.813Z,53.90
2023-02-21T20:37:26.532Z,42.70
2023-02-21T20:39:54.308Z,40.40
2023-02-21T20:42:22.766Z,40.23
2023-02-21T20:44:52.418Z,39.73
2023-02-21T20:47:20.682Z,39.30
2023-02-21T20:49:49.665Z,40.03
2023-02-21T20:52:18.013Z,39.70
2023-02-21T20:54:46.727Z,39.40
2023-02-21T20:57:14.447Z,41.07
2023-02-21T20:59:42.833Z,38.43
2023-02-21T21:02:10.755Z,42.10
2023-02-21T21:04:42.725Z,41.57
2023-02-21T21:07:13.684Z,41.33
2023-02-21T21:09:44.537Z,41.80
2023-02-21T21:12:14.958Z,40.53
2023-02-21T21:14:44.464Z,42.27
2023-02-21T21:17:15.126Z,41.83
2023-02-21T21:19:44.147Z,41.13
2023-02-21T21:22:15.456Z,43.23
2023-02-21T21:24:43.592Z,43.10
2023-02-21T21:27:14.648Z,40.10
2023-02-21T21:29:44.027Z,39.50
2023-02-21T21:32:12.855Z,38.20
2023-02-21T21:34:45.318Z,39.47
2023-02-21T21:37:15.843Z,41.03
2023-02-21T21:39:45.396Z,43.40
2023-02-21T21:42:17.136Z,42.27
2023-02-21T21:44:47.314Z,44.10
2023-02-21T21:47:16.292Z,45.67
2023-02-21T21:49:43.910Z,46.57
2023-02-21T21:52:11.559Z,45.60
2023-02-21T21:54:41.108Z,49.27
2023-02-21T21:57:09.427Z,49.07
2023-02-21T21:59:37.985Z,48.80
2023-02-21T22:02:05.609Z,46.93
2023-02-21T22:04:33.218Z,49.97
2023-02-21T22:07:00.828Z,51.80
2023-02-21T22:09:28.400Z,49.40
2023-02-21T22:11:57.304Z,50.73
2023-02-21T22:14:25.768Z,50.07
2023-02-21T22:16:54.455Z,50.07
2023-02-21T22:19:25.154Z,50.97
2023-02-21T22:21:54.705Z,52.57
2023-02-21T22:24:24.629Z,55.57
2023-02-21T22:26:53.837Z,56.27
2023-02-21T22:29:23.405Z,55.63
2023-02-21T22:31:52.464Z,55.13
2023-02-21T22:34:24.051Z,56.17
2023-02-21T22:36:52.466Z,59.50
2023-02-21T22:39:20.368Z,56.90
2023-02-21T22:41:49.188Z,67.87
2023-02-21T22:44:18.041Z,66.43
2023-02-21T22:46:50.513Z,65.40
2023-02-21T22:49:18.332Z,67.97
2023-02-21T22:51:45.990Z,67.27
2023-02-21T22:54:14.512Z,66.43
2023-02-21T22:56:50.842Z,66.37
2023-02-21T22:59:19.516Z,65.57
2023-02-21T23:01:50.753Z,64.57
2023-02-21T23:04:25.348Z,69.67
2023-02-21T23:06:53.852Z,66.93
2023-02-21T23:09:21.680Z,69.37
2023-02-21T23:11:53.231Z,65.53
2023-02-21T23:14:22.868Z,68.97
2023-02-21T23:16:55.664Z,70.70
2023-02-21T23:19:23.984Z,67.47
2023-02-21T23:21:53.687Z,69.37
2023-02-21T23:24:23.220Z,70.73
2023-02-21T23:26:51.996Z,73.10
2023-02-21T23:29:23.970Z,70.07
2023-02-21T23:31:57.556Z,73.50
2023-02-21T23:34:39.727Z,73.27
2023-02-21T23:37:08.189Z,74.30
2023-02-21T23:39:35.941Z,70.87
2023-02-21T23:42:03.594Z,69.87
2023-02-21T23:44:35.860Z,67.57
2023-02-21T23:47:05.969Z,67.60
2023-02-21T23:49:34.115Z,68.40
2023-02-21T23:52:01.799Z,70.57
2023-02-21T23:54:29.635Z,70.13
2023-02-21T23:57:00.356Z,73.53
2023-02-21T23:59:28.247Z,69.93
